createdAt,value
2022-12-15T00:01:38.220Z,3.50
2022-12-15T00:04:32.975Z,3.19
2022-12-15T00:07:24.689Z,3.20
2022-12-15T00:10:15.754Z,3.27
2022-12-15T00:13:12.405Z,3.48
2022-12-15T00:15:59.955Z,3.57
2022-12-15T00:18:48.294Z,3.65
2022-12-15T00:21:36.505Z,3.68
2022-12-15T00:24:34.388Z,3.57
2022-12-15T00:27:28.576Z,3.47
2022-12-15T00:30:22.569Z,3.44
2022-12-15T00:33:17.330Z,3.45
2022-12-15T00:36:06.500Z,3.41
2022-12-15T00:38:53.422Z,3.43
2022-12-15T00:41:20.623Z,3.33
2022-12-15T00:43:54.950Z,3.02
2022-12-15T00:46:57.263Z,3.20
2022-12-15T00:49:48.366Z,3.38
2022-12-15T00:52:41.859Z,3.38
2022-12-15T00:55:34.939Z,3.36
2022-12-15T00:58:27.846Z,3.36
2022-12-15T01:01:19.647Z,3.41
2022-12-15T01:04:13.360Z,3.47
2022-12-15T01:07:04.037Z,3.51
2022-12-15T01:09:54.033Z,3.60
2022-12-15T01:12:45.223Z,3.64
2022-12-15T01:15:39.076Z,3.63
2022-12-15T01:18:30.274Z,3.61
2022-12-15T01:21:03.099Z,3.60
2022-12-15T01:23:36.262Z,3.63
2022-12-15T01:26:05.406Z,3.67
2022-12-15T01:28:36.056Z,3.68
2022-12-15T01:31:14.878Z,3.61
2022-12-15T01:33:49.054Z,3.55
2022-12-15T01:36:24.874Z,3.50
2022-12-15T01:38:59.567Z,3.60
2022-12-15T01:41:29.912Z,3.67
2022-12-15T01:44:30.106Z,3.54
2022-12-15T01:47:00.393Z,3.51
2022-12-15T01:49:30.854Z,3.54
2022-12-15T01:52:11.477Z,3.58
2022-12-15T01:54:50.084Z,3.61
2022-12-15T01:57:23.395Z,3.65
2022-12-15T02:00:12.538Z,3.60
2022-12-15T02:02:50.045Z,3.63
2022-12-15T02:05:32.499Z,3.57
2022-12-15T02:08:08.757Z,3.51
2022-12-15T02:11:18.906Z,3.53
2022-12-15T02:14:09.395Z,3.45
2022-12-15T02:16:57.349Z,3.48
2022-12-15T02:20:06.848Z,3.45
2022-12-15T02:23:14.708Z,3.43
2022-12-15T02:26:04.034Z,3.43
2022-12-15T02:28:51.147Z,3.44
2022-12-15T02:31:52.819Z,3.48
2022-12-15T02:34:41.920Z,3.50
2022-12-15T02:37:29.313Z,3.55
2022-12-15T02:40:14.536Z,3.61
2022-12-15T02:42:51.558Z,3.54
2022-12-15T02:45:27.161Z,3.53
2022-12-15T02:48:37.705Z,3.54
2022-12-15T02:51:34.121Z,3.51
2022-12-15T02:54:09.849Z,3.43
2022-12-15T02:56:59.943Z,3.36
2022-12-15T02:59:44.993Z,3.38
2022-12-15T03:02:15.582Z,3.37
2022-12-15T03:04:47.606Z,3.44
2022-12-15T03:07:18.584Z,3.44
2022-12-15T03:09:56.281Z,3.43
2022-12-15T03:12:27.896Z,3.44
2022-12-15T03:14:58.099Z,3.44
2022-12-15T03:17:26.745Z,3.43
2022-12-15T03:19:56.142Z,3.51
2022-12-15T03:22:29.283Z,3.41
2022-12-15T03:25:06.454Z,3.47
2022-12-15T03:27:40.625Z,3.41
2022-12-15T03:30:16.844Z,3.28
2022-12-15T03:32:44.030Z,3.34
2022-12-15T03:35:16.967Z,3.27
2022-12-15T03:38:01.084Z,3.30
2022-12-15T03:40:31.072Z,3.34
2022-12-15T03:42:58.807Z,3.22
2022-12-15T03:45:30.793Z,3.24
2022-12-15T03:48:11.607Z,3.38
2022-12-15T03:50:49.710Z,3.41
2022-12-15T03:53:17.812Z,3.44
2022-12-15T03:55:50.383Z,3.48
2022-12-15T03:58:28.116Z,3.45
2022-12-15T04:01:08.994Z,3.48
2022-12-15T04:03:38.850Z,3.54
2022-12-15T04:06:11.968Z,3.67
2022-12-15T04:09:01.108Z,3.63
2022-12-15T04:11:45.446Z,3.60
2022-12-15T04:14:17.648Z,3.60
2022-12-15T04:16:56.151Z,3.75
2022-12-15T04:19:44.519Z,3.78
2022-12-15T04:22:26.863Z,3.75
2022-12-15T04:25:20.931Z,3.88
2022-12-15T04:28:06.528Z,3.92
2022-12-15T04:31:01.555Z,3.95
2022-12-15T04:33:59.857Z,3.82
2022-12-15T04:36:46.640Z,3.78
2022-12-15T04:39:37.566Z,3.88
2022-12-15T04:42:27.333Z,4.03
2022-12-15T04:45:20.990Z,3.67
2022-12-15T04:48:12.279Z,3.78
2022-12-15T04:51:03.012Z,3.82
2022-12-15T04:53:51.882Z,3.72
2022-12-15T04:56:41.596Z,3.47
2022-12-15T04:59:36.811Z,3.60
2022-12-15T05:02:25.000Z,3.63
2022-12-15T05:05:21.375Z,3.67
2022-12-15T05:08:24.271Z,3.67
2022-12-15T05:11:23.389Z,3.75
2022-12-15T05:14:13.164Z,3.64
2022-12-15T05:17:01.079Z,3.70
2022-12-15T05:19:58.119Z,3.79
2022-12-15T05:22:54.775Z,3.84
2022-12-15T05:25:43.659Z,3.91
2022-12-15T05:28:35.920Z,3.95
2022-12-15T05:31:27.037Z,3.84
2022-12-15T05:34:30.539Z,3.85
2022-12-15T05:37:01.879Z,3.81
2022-12-15T05:39:36.456Z,3.72
2022-12-15T05:42:05.211Z,3.72
2022-12-15T05:44:34.999Z,3.82
2022-12-15T05:47:02.306Z,4.03
2022-12-15T05:49:31.662Z,4.06
2022-12-15T05:52:10.063Z,4.10
2022-12-15T05:54:43.807Z,4.09
2022-12-15T05:57:23.511Z,4.12
2022-12-15T05:59:52.273Z,4.19
2022-12-15T06:02:37.981Z,4.22
2022-12-15T06:05:14.272Z,4.19
2022-12-15T06:07:50.397Z,4.20
2022-12-15T06:10:23.714Z,4.03
2022-12-15T06:13:04.569Z,4.09
2022-12-15T06:15:35.960Z,4.20
2022-12-15T06:18:05.625Z,3.93
2022-12-15T06:20:38.879Z,4.02
2022-12-15T06:23:18.673Z,3.72
2022-12-15T06:25:52.096Z,3.65
2022-12-15T06:28:23.982Z,3.74
2022-12-15T06:30:58.141Z,3.92
2022-12-15T06:33:29.267Z,3.88
2022-12-15T06:36:07.452Z,3.82
2022-12-15T06:38:43.616Z,3.86
2022-12-15T06:41:18.827Z,3.88
2022-12-15T06:43:58.187Z,3.84
2022-12-15T06:46:28.064Z,3.82
2022-12-15T06:48:58.867Z,3.99
2022-12-15T06:51:52.889Z,3.81
2022-12-15T06:54:24.460Z,3.85
2022-12-15T06:57:07.993Z,3.88
2022-12-15T06:59:40.828Z,3.93
2022-12-15T07:02:28.873Z,4.02
2022-12-15T07:05:03.952Z,4.05
2022-12-15T07:07:37.220Z,4.13
2022-12-15T07:10:16.170Z,4.06
2022-12-15T07:12:55.476Z,4.16
2022-12-15T07:15:48.087Z,4.09
2022-12-15T07:18:22.530Z,4.09
2022-12-15T07:20:55.503Z,4.16
2022-12-15T07:23:52.863Z,4.16
2022-12-15T07:26:20.087Z,4.20
2022-12-15T07:28:50.060Z,4.36
2022-12-15T07:31:24.787Z,4.30
2022-12-15T07:33:59.633Z,4.06
2022-12-15T07:36:33.978Z,4.19
2022-12-15T07:39:10.905Z,4.33
2022-12-15T07:41:41.397Z,4.30
2022-12-15T07:44:09.001Z,4.40
2022-12-15T07:46:49.068Z,4.41
2022-12-15T07:49:19.990Z,4.12
2022-12-15T07:51:59.614Z,4.13
2022-12-15T07:54:34.277Z,4.13
2022-12-15T07:57:16.106Z,4.29
2022-12-15T07:59:49.127Z,4.28
2022-12-15T08:02:29.567Z,4.44
2022-12-15T08:05:06.917Z,4.39
2022-12-15T08:07:41.638Z,4.17
2022-12-15T08:10:27.170Z,4.36
2022-12-15T08:12:58.246Z,4.28
2022-12-15T08:15:28.732Z,4.36
2022-12-15T08:18:10.225Z,4.19
2022-12-15T08:20:50.231Z,4.17
2022-12-15T08:26:14.301Z,4.29
2022-12-15T08:28:48.577Z,4.58
2022-12-15T08:31:23.767Z,4.47
2022-12-15T08:33:50.970Z,4.43
2022-12-15T08:36:21.556Z,4.61
2022-12-15T08:38:52.384Z,4.64
2022-12-15T08:41:55.688Z,4.20
2022-12-15T08:44:26.012Z,4.40
2022-12-15T08:47:11.539Z,4.57
2022-12-15T08:49:52.316Z,4.53
2022-12-15T08:52:24.284Z,4.53
2022-12-15T08:54:56.342Z,4.58
2022-12-15T08:57:35.912Z,4.56
2022-12-15T09:00:05.559Z,4.57
2022-12-15T09:02:40.220Z,4.51
2022-12-15T09:05:13.127Z,4.44
2022-12-15T09:08:07.052Z,4.47
2022-12-15T09:10:35.510Z,4.57
2022-12-15T09:13:04.811Z,4.70
2022-12-15T09:16:07.120Z,4.71
2022-12-15T09:18:30.378Z,4.85
2022-12-15T09:21:12.724Z,4.92
2022-12-15T09:24:32.209Z,4.85
2022-12-15T09:27:20.742Z,4.96
2022-12-15T09:29:52.603Z,4.87
2022-12-15T09:35:10.805Z,4.65
2022-12-15T09:37:40.068Z,4.56
2022-12-15T09:40:19.600Z,4.77
2022-12-15T09:43:33.536Z,5.13
2022-12-15T09:46:06.944Z,5.32
2022-12-15T09:48:47.968Z,5.37
2022-12-15T09:51:18.051Z,5.48
2022-12-15T09:53:56.688Z,5.37
2022-12-15T09:56:43.657Z,5.36
2022-12-15T10:00:03.125Z,5.46
2022-12-15T10:02:47.128Z,5.39
2022-12-15T10:08:45.866Z,5.47
2022-12-15T10:11:26.785Z,5.30
2022-12-15T10:14:21.555Z,5.33
2022-12-15T10:17:53.664Z,5.33
2022-12-15T10:20:33.127Z,5.32
2022-12-15T10:23:12.958Z,5.37
2022-12-15T10:25:59.464Z,5.43
2022-12-15T10:28:41.147Z,5.47
2022-12-15T10:31:35.590Z,5.46
2022-12-15T10:34:26.803Z,5.44
2022-12-15T10:37:14.929Z,5.60
2022-12-15T10:39:51.000Z,5.64
2022-12-15T10:42:36.273Z,5.68
2022-12-15T10:45:31.186Z,5.70
2022-12-15T10:48:01.734Z,5.73
2022-12-15T10:50:37.529Z,5.77
2022-12-15T10:53:53.905Z,5.78
2022-12-15T10:56:36.169Z,5.85
2022-12-15T10:59:27.302Z,5.81
2022-12-15T11:01:55.064Z,5.88
2022-12-15T11:04:28.508Z,5.81
2022-12-15T11:07:08.501Z,5.99
2022-12-15T11:09:40.016Z,5.90
2022-12-15T11:13:09.167Z,5.88
2022-12-15T11:15:59.121Z,6.15
2022-12-15T11:18:53.036Z,6.22
2022-12-15T11:21:28.644Z,6.15
2022-12-15T11:24:29.668Z,6.05
2022-12-15T11:27:15.034Z,6.09
2022-12-15T11:30:01.951Z,6.18
2022-12-15T11:32:41.250Z,6.32
2022-12-15T11:35:16.320Z,6.29
2022-12-15T11:37:58.122Z,6.29
2022-12-15T11:41:06.770Z,6.23
2022-12-15T11:43:45.547Z,6.13
2022-12-15T11:46:29.283Z,6.28
2022-12-15T11:49:04.944Z,6.09
2022-12-15T11:52:05.178Z,5.81
2022-12-15T11:54:47.604Z,6.05
2022-12-15T11:57:51.296Z,6.04
2022-12-15T12:00:21.501Z,6.29
2022-12-15T12:03:22.121Z,6.36
2022-12-15T12:06:15.166Z,6.56
2022-12-15T12:09:31.111Z,6.43
2022-12-15T12:12:13.800Z,6.52
2022-12-15T12:15:07.150Z,6.43
2022-12-15T12:18:00.172Z,6.13
2022-12-15T12:20:52.246Z,6.34
2022-12-15T12:24:00.942Z,6.44
2022-12-15T12:27:02.449Z,6.47
2022-12-15T12:29:55.529Z,6.40
2022-12-15T12:32:56.076Z,6.37
2022-12-15T12:35:37.334Z,6.21
2022-12-15T12:38:09.507Z,6.40
2022-12-15T12:41:14.691Z,6.34
2022-12-15T12:43:55.755Z,6.46
2022-12-15T12:46:36.740Z,6.19
2022-12-15T12:49:22.789Z,6.37
2022-12-15T12:52:00.590Z,6.28
2022-12-15T12:54:45.343Z,6.15
2022-12-15T12:57:16.617Z,6.08
2022-12-15T13:00:22.267Z,6.26
2022-12-15T13:03:15.728Z,6.18
2022-12-15T13:05:47.100Z,6.28
2022-12-15T13:08:28.659Z,6.23
2022-12-15T13:11:38.677Z,5.97
2022-12-15T13:14:51.719Z,6.09
2022-12-15T13:18:01.263Z,6.30
2022-12-15T13:20:34.037Z,6.11
2022-12-15T13:23:21.373Z,5.77
2022-12-15T13:26:03.636Z,5.78
2022-12-15T13:28:38.998Z,5.77
2022-12-15T13:31:23.800Z,5.87
2022-12-15T13:34:16.657Z,6.04
2022-12-15T13:36:48.078Z,6.02
2022-12-15T13:39:21.016Z,6.05
2022-12-15T13:42:32.530Z,6.09
2022-12-15T13:45:35.870Z,6.08
2022-12-15T13:48:19.415Z,6.01
2022-12-15T13:54:28.797Z,6.13
2022-12-15T13:57:17.298Z,6.12
2022-12-15T13:59:55.165Z,6.21
2022-12-15T14:02:23.611Z,6.21
2022-12-15T14:05:29.435Z,6.32
2022-12-15T14:08:19.719Z,6.26
2022-12-15T14:10:54.401Z,6.29
2022-12-15T14:13:28.842Z,6.23
2022-12-15T14:16:15.745Z,6.18
2022-12-15T14:19:02.247Z,6.01
2022-12-15T14:21:33.115Z,6.08
2022-12-15T14:27:14.157Z,6.15
2022-12-15T14:29:45.410Z,6.09
2022-12-15T14:32:19.955Z,6.12
2022-12-15T14:35:00.399Z,6.13
2022-12-15T14:37:33.669Z,6.19
2022-12-15T14:40:04.957Z,6.21
2022-12-15T14:42:32.312Z,6.16
2022-12-15T14:45:08.197Z,6.13
2022-12-15T14:47:38.536Z,6.19
2022-12-15T14:50:11.395Z,6.02
2022-12-15T14:52:48.946Z,5.95
2022-12-15T14:55:25.329Z,6.02
2022-12-15T14:57:59.181Z,6.09
2022-12-15T15:00:48.104Z,6.15
2022-12-15T15:03:14.738Z,5.58
2022-12-15T15:03:41.717Z,6.13
2022-12-15T15:06:15.382Z,6.13
2022-12-15T15:08:59.091Z,5.97
2022-12-15T15:12:05.427Z,6.05
2022-12-15T15:14:42.234Z,6.09
2022-12-15T15:17:35.735Z,6.15
2022-12-15T15:20:25.541Z,6.13
2022-12-15T15:23:16.504Z,6.13
2022-12-15T15:26:04.458Z,6.15
2022-12-15T15:28:46.474Z,6.18
2022-12-15T15:31:28.535Z,6.13
2022-12-15T15:34:04.597Z,6.19
2022-12-15T15:36:36.058Z,6.11
2022-12-15T15:39:23.807Z,6.08
2022-12-15T15:42:10.375Z,6.01
2022-12-15T15:44:43.044Z,6.08
2022-12-15T15:47:36.898Z,6.09
2022-12-15T15:50:14.849Z,6.06
2022-12-15T15:52:47.095Z,6.21
2022-12-15T15:55:27.036Z,6.11
2022-12-15T15:57:54.410Z,6.11
2022-12-15T16:00:38.885Z,6.09
2022-12-15T16:03:08.306Z,6.18
2022-12-15T16:05:43.948Z,6.25
2022-12-15T16:08:17.768Z,6.19
2022-12-15T16:10:49.200Z,6.12
2022-12-15T16:13:48.214Z,6.13
2022-12-15T16:16:22.264Z,6.21
2022-12-15T16:18:55.376Z,6.26
2022-12-15T16:21:33.860Z,6.23
2022-12-15T16:24:16.783Z,6.13
2022-12-15T16:26:55.711Z,6.13
2022-12-15T16:29:25.310Z,6.12
2022-12-15T16:31:56.085Z,6.12
2022-12-15T16:34:24.702Z,6.18
2022-12-15T16:37:05.141Z,6.28
2022-12-15T16:39:40.836Z,6.25
2022-12-15T16:42:17.750Z,6.18
2022-12-15T16:44:56.405Z,6.19
2022-12-15T16:47:43.739Z,6.23
2022-12-15T16:50:28.396Z,6.16
2022-12-15T16:53:02.574Z,6.15
2022-12-15T16:55:48.199Z,6.08
2022-12-15T16:58:33.010Z,6.09
2022-12-15T17:01:03.945Z,6.16
2022-12-15T17:03:37.661Z,6.18
2022-12-15T17:06:10.221Z,6.12
2022-12-15T17:08:48.974Z,6.08
2022-12-15T17:11:35.926Z,6.12
2022-12-15T17:14:19.338Z,6.12
2022-12-15T17:16:56.338Z,6.04
2022-12-15T17:19:31.610Z,5.99
2022-12-15T17:22:01.961Z,5.93
2022-12-15T17:24:29.145Z,5.85
2022-12-15T17:27:03.852Z,5.88
2022-12-15T17:29:32.890Z,5.75
2022-12-15T17:32:10.588Z,5.77
2022-12-15T17:34:44.092Z,5.77
2022-12-15T17:37:17.538Z,5.78
2022-12-15T17:39:50.790Z,5.78
2022-12-15T17:42:31.886Z,5.75
2022-12-15T17:45:02.055Z,5.73
2022-12-15T17:47:33.924Z,5.68
2022-12-15T17:50:12.844Z,5.63
2022-12-15T17:52:46.813Z,5.57
2022-12-15T17:55:19.077Z,5.42
2022-12-15T17:57:56.638Z,5.42
2022-12-15T18:00:32.070Z,5.37
2022-12-15T18:03:04.601Z,5.39
2022-12-15T18:05:37.708Z,5.35
2022-12-15T18:08:17.729Z,5.27
2022-12-15T18:10:57.722Z,5.27
2022-12-15T18:13:42.704Z,5.30
2022-12-15T18:16:13.870Z,5.20
2022-12-15T18:18:43.407Z,5.26
2022-12-15T18:21:31.757Z,5.25
2022-12-15T18:24:29.451Z,5.18
2022-12-15T18:27:05.332Z,5.20
2022-12-15T18:29:39.847Z,5.29
2022-12-15T18:32:10.718Z,5.32
2022-12-15T18:34:44.356Z,5.27
2022-12-15T18:37:29.283Z,5.33
2022-12-15T18:40:03.981Z,5.37
2022-12-15T18:42:40.725Z,5.36
2022-12-15T18:45:28.362Z,5.35
2022-12-15T18:48:01.057Z,5.42
2022-12-15T18:50:32.405Z,5.43
2022-12-15T18:53:07.707Z,5.40
2022-12-15T18:55:42.859Z,5.43
2022-12-15T18:58:28.604Z,5.44
2022-12-15T19:01:02.861Z,5.43
2022-12-15T19:03:42.649Z,5.46
2022-12-15T19:06:36.025Z,5.33
2022-12-15T19:09:10.068Z,5.36
2022-12-15T19:11:37.611Z,5.43
2022-12-15T19:14:33.862Z,5.37
2022-12-15T19:17:24.322Z,5.42
2022-12-15T19:20:36.538Z,5.43
2022-12-15T19:23:08.117Z,5.44
2022-12-15T19:25:43.522Z,5.43
2022-12-15T19:28:29.018Z,5.46
2022-12-15T19:31:11.630Z,5.47
2022-12-15T19:33:50.011Z,5.43
2022-12-15T19:36:26.029Z,5.40
2022-12-15T19:39:07.407Z,5.36
2022-12-15T19:41:46.677Z,5.32
2022-12-15T19:44:14.999Z,5.30
2022-12-15T19:46:45.228Z,5.27
2022-12-15T19:49:15.091Z,5.29
2022-12-15T19:51:50.747Z,5.25
2022-12-15T19:54:27.046Z,5.19
2022-12-15T19:56:59.789Z,5.15
2022-12-15T19:59:28.246Z,5.13
2022-12-15T20:02:05.651Z,5.13
2022-12-15T20:04:37.725Z,5.13
2022-12-15T20:07:29.047Z,5.12
2022-12-15T20:10:08.667Z,5.12
2022-12-15T20:12:42.936Z,5.13
2022-12-15T20:15:15.764Z,5.11
2022-12-15T20:17:50.569Z,5.06
2022-12-15T20:20:31.013Z,5.04
2022-12-15T20:23:06.225Z,4.95
2022-12-15T20:25:38.699Z,5.02
2022-12-15T20:28:24.416Z,4.96
2022-12-15T20:31:08.635Z,5.04
2022-12-15T20:33:45.359Z,5.06
2022-12-15T20:36:21.094Z,5.08
2022-12-15T20:38:56.482Z,5.12
2022-12-15T20:41:34.060Z,5.09
2022-12-15T20:44:08.898Z,5.13
2022-12-15T20:46:39.153Z,5.13
2022-12-15T20:49:26.313Z,5.08
2022-12-15T20:51:55.923Z,5.08
2022-12-15T20:54:27.457Z,5.08
2022-12-15T20:57:03.654Z,5.06
2022-12-15T20:59:30.797Z,5.11
2022-12-15T21:02:01.915Z,5.11
2022-12-15T21:04:35.021Z,5.11
2022-12-15T21:07:10.218Z,5.15
2022-12-15T21:09:39.566Z,5.06
2022-12-15T21:12:30.151Z,5.15
2022-12-15T21:15:03.227Z,5.15
2022-12-15T21:17:36.321Z,5.12
2022-12-15T21:20:18.392Z,5.13
2022-12-15T21:22:48.450Z,5.06
2022-12-15T21:25:29.705Z,5.09
2022-12-15T21:27:56.920Z,5.15
2022-12-15T21:30:29.844Z,5.11
2022-12-15T21:33:00.836Z,5.13
2022-12-15T21:35:35.400Z,5.08
2022-12-15T21:38:19.127Z,5.12
2022-12-15T21:40:57.691Z,5.16
2022-12-15T21:43:43.584Z,5.18
2022-12-15T21:46:17.388Z,5.19
2022-12-15T21:49:05.303Z,5.18
2022-12-15T21:51:38.073Z,5.18
2022-12-15T21:54:34.805Z,5.23
2022-12-15T21:57:22.856Z,5.20
2022-12-15T21:59:55.375Z,5.19
2022-12-15T22:02:26.996Z,5.22
2022-12-15T22:04:54.844Z,5.27
2022-12-15T22:07:35.233Z,5.29
2022-12-15T22:10:07.433Z,5.30
2022-12-15T22:12:55.906Z,5.39
2022-12-15T22:15:34.109Z,5.32
2022-12-15T22:18:15.927Z,5.32
2022-12-15T22:20:52.670Z,5.30
2022-12-15T22:23:30.387Z,5.27
2022-12-15T22:26:04.289Z,5.29
2022-12-15T22:28:41.839Z,5.32
2022-12-15T22:31:18.248Z,5.29
2022-12-15T22:33:51.407Z,5.33
2022-12-15T22:36:21.650Z,5.33
2022-12-15T22:38:51.982Z,5.33
2022-12-15T22:41:33.001Z,5.32
2022-12-15T22:44:16.094Z,5.35
2022-12-15T22:47:01.511Z,5.23
2022-12-15T22:49:33.435Z,5.22
2022-12-15T22:52:26.056Z,5.35
2022-12-15T22:55:10.352Z,5.30
2022-12-15T22:57:48.849Z,5.32
2022-12-15T23:00:38.724Z,5.27
2022-12-15T23:03:19.864Z,5.36
2022-12-15T23:06:04.240Z,5.30
2022-12-15T23:08:36.012Z,5.30
2022-12-15T23:11:22.007Z,5.32
2022-12-15T23:13:53.711Z,5.32
2022-12-15T23:16:31.717Z,5.33
2022-12-15T23:19:01.780Z,5.37
2022-12-15T23:21:44.518Z,5.33
2022-12-15T23:24:18.890Z,5.40
2022-12-15T23:27:01.361Z,5.48
2022-12-15T23:29:54.322Z,5.47
2022-12-15T23:32:22.198Z,5.44
2022-12-15T23:34:51.810Z,5.47
2022-12-15T23:37:21.592Z,5.46
2022-12-15T23:39:49.847Z,5.48
2022-12-15T23:42:25.281Z,5.35
2022-12-15T23:44:56.292Z,5.42
2022-12-15T23:47:29.960Z,5.51
2022-12-15T23:49:59.080Z,5.64
2022-12-15T23:52:37.904Z,5.66
2022-12-15T23:55:08.890Z,5.70
2022-12-15T23:57:39.487Z,5.74
